createdAt,value
2022-12-26T08:42:20.993Z,10.68
2022-12-26T08:43:34.859Z,10.62
2022-12-26T08:44:27.136Z,10.70
2022-12-26T08:45:21.925Z,10.68
2022-12-26T08:46:20.989Z,10.74
2022-12-26T08:47:20.908Z,10.74
2022-12-26T08:48:20.918Z,10.71
2022-12-26T08:49:20.886Z,10.71
2022-12-26T08:50:20.853Z,10.78
2022-12-26T08:51:20.847Z,10.74
2022-12-26T08:52:20.842Z,10.70
2022-12-26T08:53:20.863Z,10.74
2022-12-26T08:54:20.818Z,10.83
2022-12-26T08:55:20.844Z,10.86
2022-12-26T08:56:20.836Z,10.92
2022-12-26T08:57:20.782Z,10.83
2022-12-26T08:58:20.869Z,10.89
2022-12-26T08:59:20.811Z,10.83
2022-12-26T09:00:21.755Z,10.95
2022-12-26T09:01:20.858Z,10.95
2022-12-26T09:02:20.896Z,10.92
2022-12-26T09:03:20.772Z,11.01
2022-12-26T09:04:20.710Z,10.99
2022-12-26T09:05:20.697Z,10.91
2022-12-26T09:06:20.695Z,11.07
2022-12-26T09:07:20.681Z,11.06
2022-12-26T09:08:20.684Z,11.19
2022-12-26T09:09:41.679Z,11.14
2022-12-26T09:10:20.642Z,11.32
2022-12-26T09:11:20.615Z,11.19
2022-12-26T09:12:20.621Z,11.19
2022-12-26T09:13:20.632Z,11.21
2022-12-26T09:14:20.624Z,11.34
2022-12-26T09:15:20.588Z,11.38
2022-12-26T09:16:20.706Z,11.32
2022-12-26T09:17:20.639Z,11.41
2022-12-26T09:18:20.615Z,11.52
2022-12-26T09:19:20.577Z,11.43
2022-12-26T09:20:21.518Z,11.43
2022-12-26T09:21:20.532Z,11.38
2022-12-26T09:22:20.510Z,11.46
2022-12-26T09:23:20.507Z,11.52
2022-12-26T09:24:20.498Z,11.52
2022-12-26T09:25:20.480Z,11.53
2022-12-26T09:26:20.462Z,11.61
2022-12-26T09:27:20.435Z,11.56
2022-12-26T09:28:20.418Z,11.59
2022-12-26T09:29:20.440Z,11.72
2022-12-26T09:30:20.431Z,11.64
2022-12-26T09:31:20.471Z,11.72
2022-12-26T09:32:20.373Z,11.71
2022-12-26T09:33:20.386Z,11.77
2022-12-26T09:34:20.365Z,11.83
2022-12-26T09:35:20.373Z,11.85
2022-12-26T09:36:20.334Z,11.80
2022-12-26T09:37:20.347Z,11.94
2022-12-26T09:38:20.341Z,11.94
2022-12-26T09:39:20.323Z,11.94
2022-12-26T09:40:20.326Z,11.93
2022-12-26T09:41:20.284Z,12.02
2022-12-26T09:42:20.272Z,12.05
2022-12-26T09:43:20.267Z,12.02
2022-12-26T09:44:20.284Z,12.09
2022-12-26T09:45:20.242Z,12.09
2022-12-26T09:46:20.325Z,12.13
2022-12-26T09:47:20.210Z,12.08
2022-12-26T09:48:20.191Z,12.11
2022-12-26T09:49:20.197Z,12.13
2022-12-26T09:50:20.202Z,12.27
2022-12-26T09:51:20.178Z,12.27
2022-12-26T09:52:20.149Z,12.26
2022-12-26T09:53:20.144Z,12.41
2022-12-26T09:54:20.121Z,12.38
2022-12-26T09:55:20.115Z,12.33
2022-12-26T09:57:01.378Z,12.31
2022-12-26T09:57:21.094Z,12.34
2022-12-26T09:58:20.078Z,12.44
2022-12-26T09:59:21.085Z,12.49
2022-12-26T10:00:20.084Z,12.46
2022-12-26T10:01:20.162Z,12.46
2022-12-26T10:02:20.250Z,12.44
2022-12-26T10:03:20.044Z,12.41
2022-12-26T10:04:23.607Z,12.45
2022-12-26T10:05:21.019Z,12.51
2022-12-26T10:06:20.009Z,12.48
2022-12-26T10:07:19.993Z,12.49
2022-12-26T10:08:19.970Z,12.54
2022-12-26T10:09:19.974Z,12.62
2022-12-26T10:10:21.039Z,12.48
2022-12-26T10:11:19.970Z,12.60
2022-12-26T10:12:19.919Z,12.59
2022-12-26T10:13:19.925Z,12.59
2022-12-26T10:14:21.824Z,12.60
2022-12-26T10:15:19.910Z,12.67
2022-12-26T10:16:19.950Z,12.75
2022-12-26T10:17:19.921Z,12.77
2022-12-26T10:18:19.887Z,12.69
2022-12-26T10:19:19.877Z,12.70
2022-12-26T10:20:19.832Z,12.84
2022-12-26T10:21:19.826Z,12.74
2022-12-26T10:22:19.846Z,12.95
2022-12-26T10:23:19.847Z,12.75
2022-12-26T10:24:19.783Z,12.85
2022-12-26T10:25:19.792Z,12.78
2022-12-26T10:26:20.770Z,12.81
2022-12-26T10:27:19.797Z,12.92
2022-12-26T10:28:19.752Z,12.82
2022-12-26T10:29:19.741Z,12.97
2022-12-26T10:30:20.763Z,12.93
2022-12-26T10:31:20.791Z,13.00
2022-12-26T10:32:25.984Z,13.06
2022-12-26T10:33:20.684Z,13.06
2022-12-26T10:34:19.693Z,13.22
2022-12-26T10:35:19.660Z,13.14
2022-12-26T10:36:19.661Z,13.24
2022-12-26T10:37:19.672Z,13.27
2022-12-26T10:38:25.630Z,13.38
2022-12-26T10:39:20.616Z,13.44
2022-12-26T10:40:19.682Z,13.44
2022-12-26T10:41:19.608Z,13.44
2022-12-26T10:42:19.591Z,13.44
2022-12-26T10:43:19.584Z,13.49
2022-12-26T10:44:25.601Z,13.47
2022-12-26T10:45:22.236Z,13.44
2022-12-26T10:46:19.565Z,13.44
2022-12-26T10:47:19.549Z,13.40
2022-12-26T10:48:19.512Z,13.33
2022-12-26T10:49:19.512Z,13.36
2022-12-26T10:50:25.430Z,13.29
2022-12-26T10:51:20.495Z,13.25
2022-12-26T10:52:19.492Z,13.20
2022-12-26T10:53:20.479Z,13.18
2022-12-26T10:54:19.445Z,13.12
2022-12-26T10:55:28.895Z,13.15
2022-12-26T10:56:20.416Z,13.21
2022-12-26T10:57:20.423Z,13.12
2022-12-26T10:58:19.421Z,13.14
2022-12-26T10:59:19.461Z,13.07
2022-12-26T11:00:19.489Z,13.09
2022-12-26T11:01:19.513Z,13.17
2022-12-26T11:02:19.545Z,13.17
2022-12-26T11:03:19.504Z,13.22
2022-12-26T11:04:31.313Z,13.25
2022-12-26T11:05:48.897Z,13.33
2022-12-26T11:06:20.336Z,13.24
2022-12-26T11:07:19.328Z,13.32
2022-12-26T11:08:19.279Z,13.40
2022-12-26T11:09:19.449Z,13.40
2022-12-26T11:10:19.273Z,13.52
2022-12-26T11:11:19.247Z,13.54
2022-12-26T11:12:19.231Z,13.47
2022-12-26T11:13:19.260Z,13.49
2022-12-26T11:14:19.260Z,13.54
2022-12-26T11:15:19.207Z,13.46
2022-12-26T11:16:19.253Z,13.58
2022-12-26T11:17:19.195Z,13.55
2022-12-26T11:18:19.179Z,13.67
2022-12-26T11:19:19.170Z,13.59
2022-12-26T11:20:19.154Z,13.61
2022-12-26T11:21:19.158Z,13.58
2022-12-26T11:22:19.152Z,13.56
2022-12-26T11:23:19.138Z,13.69
2022-12-26T11:24:19.100Z,13.56
2022-12-26T11:25:19.099Z,13.47
2022-12-26T11:26:19.088Z,13.62
2022-12-26T11:27:19.078Z,13.62
2022-12-26T11:28:19.086Z,13.77
2022-12-26T11:29:19.045Z,13.61
2022-12-26T11:30:19.045Z,13.56
2022-12-26T11:31:19.073Z,13.67
2022-12-26T11:32:19.022Z,13.70
2022-12-26T11:33:19.032Z,13.70
2022-12-26T11:34:18.984Z,13.71
2022-12-26T11:35:18.986Z,13.76
2022-12-26T11:36:18.961Z,13.69
2022-12-26T11:37:18.949Z,13.73
2022-12-26T11:38:18.986Z,13.77
2022-12-26T11:39:18.939Z,13.76
2022-12-26T11:40:18.927Z,13.76
2022-12-26T11:41:18.915Z,13.77
2022-12-26T11:42:18.903Z,13.87
2022-12-26T11:43:18.929Z,13.81
2022-12-26T11:44:18.894Z,13.88
2022-12-26T11:45:18.857Z,13.99
2022-12-26T11:46:18.975Z,14.19
2022-12-26T11:47:18.833Z,14.28
2022-12-26T11:48:18.839Z,14.24
2022-12-26T11:49:18.852Z,14.27
2022-12-26T11:50:18.817Z,14.34
2022-12-26T11:51:18.804Z,14.32
2022-12-26T11:52:18.825Z,14.44
2022-12-26T11:53:18.775Z,14.42
2022-12-26T11:54:18.815Z,14.46
2022-12-26T11:55:18.759Z,14.37
2022-12-26T11:56:18.757Z,14.29
2022-12-26T11:57:18.722Z,14.29
2022-12-26T11:58:18.734Z,14.37
2022-12-26T11:59:56.293Z,14.31
2022-12-26T12:00:18.729Z,14.28
2022-12-26T12:01:18.748Z,14.25
2022-12-26T12:02:18.700Z,14.24
2022-12-26T12:03:18.733Z,14.34
2022-12-26T12:04:18.648Z,14.50
2022-12-26T12:05:18.662Z,14.44
2022-12-26T12:06:18.627Z,14.50
2022-12-26T12:07:18.626Z,14.39
2022-12-26T12:08:18.613Z,14.42
2022-12-26T12:09:18.613Z,14.38
2022-12-26T12:10:18.615Z,14.35
2022-12-26T12:11:18.569Z,14.21
2022-12-26T12:12:18.572Z,14.27
2022-12-26T12:13:18.545Z,14.19
2022-12-26T12:14:18.537Z,14.14
2022-12-26T12:15:18.541Z,14.09
2022-12-26T12:16:18.550Z,14.06
2022-12-26T12:17:18.512Z,14.01
2022-12-26T12:18:18.498Z,13.91
2022-12-26T12:19:18.482Z,13.95
2022-12-26T12:20:18.487Z,13.94
2022-12-26T12:21:18.468Z,13.83
2022-12-26T12:22:18.473Z,13.76
2022-12-26T12:23:18.470Z,13.87
2022-12-26T12:24:18.455Z,13.76
2022-12-26T12:25:18.423Z,13.80
2022-12-26T12:26:18.440Z,13.74
2022-12-26T12:27:18.399Z,13.74
2022-12-26T12:28:18.393Z,13.69
2022-12-26T12:29:18.363Z,13.63
2022-12-26T12:30:18.363Z,13.56
2022-12-26T12:31:19.430Z,13.62
2022-12-26T12:32:18.339Z,13.59
2022-12-26T12:33:18.331Z,13.51
2022-12-26T12:34:18.322Z,13.37
2022-12-26T12:35:18.317Z,13.40
2022-12-26T12:36:18.321Z,13.22
2022-12-26T12:37:18.270Z,13.18
2022-12-26T12:38:18.268Z,13.21
2022-12-26T12:39:18.282Z,13.24
2022-12-26T12:40:18.260Z,13.14
2022-12-26T12:41:18.266Z,13.06
2022-12-26T12:42:18.240Z,13.15
2022-12-26T12:43:18.215Z,13.04
2022-12-26T12:44:18.203Z,12.95
2022-12-26T12:45:18.204Z,13.04
2022-12-26T12:46:18.199Z,12.93
2022-12-26T12:47:18.198Z,12.85
2022-12-26T12:48:18.167Z,12.79
2022-12-26T12:49:18.152Z,12.85
2022-12-26T12:50:18.137Z,12.75
2022-12-26T12:51:18.116Z,12.77
2022-12-26T12:52:18.113Z,12.62
2022-12-26T12:53:18.103Z,12.67
2022-12-26T12:54:18.105Z,12.57
2022-12-26T12:55:18.068Z,12.66
2022-12-26T12:56:18.081Z,12.60
2022-12-26T12:57:18.090Z,12.77
2022-12-26T12:58:18.057Z,12.67
2022-12-26T12:59:18.044Z,12.59
2022-12-26T13:00:18.021Z,12.62
2022-12-26T13:01:18.182Z,12.88
2022-12-26T13:02:20.650Z,12.78
2022-12-26T13:03:18.066Z,13.00
2022-12-26T13:04:17.971Z,12.81
2022-12-26T13:05:17.953Z,12.87
2022-12-26T13:06:17.966Z,12.95
2022-12-26T13:07:17.942Z,12.88
2022-12-26T13:08:17.981Z,12.92
2022-12-26T13:09:17.913Z,12.95
2022-12-26T13:10:17.914Z,12.89
2022-12-26T13:11:17.883Z,12.97
2022-12-26T13:12:17.880Z,12.93
2022-12-26T13:13:18.887Z,12.85
2022-12-26T13:14:17.915Z,12.88
2022-12-26T13:15:17.851Z,13.03
2022-12-26T13:16:17.887Z,12.93
2022-12-26T13:17:17.828Z,12.82
2022-12-26T13:18:17.823Z,12.82
2022-12-26T13:19:17.817Z,12.77
2022-12-26T13:20:17.812Z,12.82
2022-12-26T13:21:17.781Z,12.85
2022-12-26T13:22:17.760Z,12.82
2022-12-26T13:23:17.758Z,12.81
2022-12-26T13:24:17.765Z,12.84
2022-12-26T13:25:17.723Z,12.71
2022-12-26T13:26:17.729Z,12.77
2022-12-26T13:27:18.717Z,12.79
2022-12-26T13:28:17.722Z,12.74
2022-12-26T13:29:17.694Z,12.69
2022-12-26T13:30:17.730Z,12.62
2022-12-26T13:31:17.706Z,12.56
2022-12-26T13:32:17.652Z,12.60
2022-12-26T13:33:17.634Z,12.64
2022-12-26T13:34:17.660Z,12.62
2022-12-26T13:35:17.632Z,12.64
2022-12-26T13:36:17.616Z,12.56
2022-12-26T13:37:17.588Z,12.51
2022-12-26T13:38:17.593Z,12.56
2022-12-26T13:39:17.608Z,12.51
2022-12-26T13:40:17.755Z,12.48
2022-12-26T13:41:18.087Z,12.34
2022-12-26T13:42:17.548Z,12.24
2022-12-26T13:43:17.603Z,12.20
2022-12-26T13:44:17.554Z,12.01
2022-12-26T13:45:17.495Z,11.90
2022-12-26T13:46:17.550Z,11.77
2022-12-26T13:47:17.471Z,11.68
2022-12-26T13:48:17.483Z,11.57
2022-12-26T13:49:17.521Z,11.61
2022-12-26T13:50:17.453Z,11.50
2022-12-26T13:51:17.439Z,11.49
2022-12-26T13:52:17.418Z,11.38
2022-12-26T13:53:17.415Z,11.32
2022-12-26T13:54:17.401Z,11.17
2022-12-26T13:55:17.434Z,11.34
2022-12-26T13:56:17.422Z,11.28
2022-12-26T13:57:17.477Z,11.10
2022-12-26T13:58:17.367Z,11.11
2022-12-26T13:59:17.342Z,11.07
2022-12-26T14:00:17.358Z,11.06
2022-12-26T14:01:17.406Z,10.98
2022-12-26T14:02:19.842Z,11.09
2022-12-26T14:03:19.729Z,11.01
2022-12-26T14:04:17.379Z,10.92
2022-12-26T14:05:17.335Z,10.88
2022-12-26T14:06:17.272Z,10.96
2022-12-26T14:07:17.249Z,10.92
2022-12-26T14:08:17.249Z,10.91
2022-12-26T14:09:17.248Z,10.86
2022-12-26T14:10:17.252Z,10.95
2022-12-26T14:11:17.236Z,10.83
2022-12-26T14:12:17.204Z,10.76
2022-12-26T14:13:17.177Z,10.78
2022-12-26T14:14:17.180Z,10.86
2022-12-26T14:15:17.168Z,10.77
2022-12-26T14:16:17.192Z,10.65
2022-12-26T14:17:17.143Z,10.70
2022-12-26T14:18:17.144Z,10.86
2022-12-26T14:19:17.221Z,10.78
2022-12-26T14:20:17.193Z,10.86
2022-12-26T14:21:17.089Z,10.71
2022-12-26T14:22:17.110Z,10.77
2022-12-26T14:23:17.081Z,10.77
2022-12-26T14:24:17.066Z,10.86
2022-12-26T14:25:17.065Z,10.78
2022-12-26T14:26:17.032Z,10.81
2022-12-26T14:27:17.110Z,10.77
2022-12-26T14:28:17.077Z,10.71
2022-12-26T14:29:17.077Z,10.86
2022-12-26T14:30:16.991Z,10.77
2022-12-26T14:31:17.094Z,10.74
2022-12-26T14:32:16.995Z,10.70
2022-12-26T14:33:16.951Z,10.70
2022-12-26T14:34:16.963Z,10.70
2022-12-26T14:35:17.936Z,10.66
2022-12-26T14:36:16.930Z,10.58
2022-12-26T14:37:17.932Z,10.68
2022-12-26T14:38:17.012Z,10.52
2022-12-26T14:39:16.880Z,10.58
2022-12-26T14:40:16.925Z,10.59
2022-12-26T14:41:16.898Z,10.52
2022-12-26T14:42:16.928Z,10.63
2022-12-26T14:43:16.866Z,10.59
2022-12-26T14:44:16.837Z,10.55
2022-12-26T14:45:16.812Z,10.68
2022-12-26T14:46:16.906Z,10.59
2022-12-26T14:47:16.789Z,10.60
2022-12-26T14:48:16.803Z,10.60
2022-12-26T14:49:16.883Z,10.62
2022-12-26T14:50:16.781Z,10.60
2022-12-26T14:51:16.767Z,10.53
2022-12-26T14:52:16.737Z,10.55
2022-12-26T14:53:16.750Z,10.53
2022-12-26T14:54:16.717Z,10.59
2022-12-26T14:55:17.712Z,10.55
2022-12-26T14:56:16.703Z,10.51
2022-12-26T14:57:16.703Z,10.43
2022-12-26T14:58:16.707Z,10.52
2022-12-26T14:59:17.662Z,10.43
2022-12-26T15:00:16.657Z,10.44
2022-12-26T15:01:16.794Z,10.42
2022-12-26T15:02:16.795Z,10.46
2022-12-26T15:03:16.676Z,10.46
2022-12-26T15:04:16.633Z,10.42
2022-12-26T15:05:16.598Z,10.47
2022-12-26T15:06:16.598Z,10.33
2022-12-26T15:07:20.609Z,10.36
2022-12-26T15:08:16.557Z,10.37
2022-12-26T15:09:16.572Z,10.51
2022-12-26T15:10:16.544Z,10.39
2022-12-26T15:11:16.532Z,10.46
2022-12-26T15:12:16.516Z,10.36
2022-12-26T15:13:16.515Z,10.40
2022-12-26T15:14:16.515Z,10.36
2022-12-26T15:15:16.480Z,10.37
2022-12-26T15:16:16.545Z,10.30
2022-12-26T15:17:17.460Z,10.43
2022-12-26T15:18:16.454Z,10.37
2022-12-26T15:19:16.446Z,10.34
2022-12-26T15:20:16.445Z,10.34
2022-12-26T15:21:16.409Z,10.30
2022-12-26T15:22:16.438Z,10.33
2022-12-26T15:23:16.394Z,10.37
2022-12-26T15:24:16.405Z,10.24
2022-12-26T15:25:19.183Z,10.26
2022-12-26T15:26:16.356Z,10.25
2022-12-26T15:27:16.349Z,10.37
2022-12-26T15:28:16.329Z,10.30
2022-12-26T15:29:16.355Z,10.19
2022-12-26T15:30:16.320Z,10.22
2022-12-26T15:31:16.334Z,10.21
2022-12-26T15:32:16.285Z,10.25
2022-12-26T15:33:17.286Z,10.32
2022-12-26T15:34:16.272Z,10.24
2022-12-26T15:35:16.262Z,10.15
2022-12-26T15:36:16.251Z,10.21
2022-12-26T15:37:22.120Z,10.25
2022-12-26T15:38:17.218Z,10.22
2022-12-26T15:39:16.200Z,10.21
2022-12-26T15:40:16.272Z,10.30
2022-12-26T15:41:16.201Z,10.14
2022-12-26T15:42:16.184Z,10.14
2022-12-26T15:43:16.167Z,10.12
2022-12-26T15:44:16.158Z,10.12
2022-12-26T15:45:16.169Z,10.00
2022-12-26T15:46:16.188Z,10.01
2022-12-26T15:47:17.069Z,10.00
2022-12-26T15:48:16.094Z,10.03
2022-12-26T15:49:16.094Z,9.94
2022-12-26T15:50:16.097Z,9.83
2022-12-26T15:51:16.073Z,9.86
2022-12-26T15:52:16.067Z,9.79
2022-12-26T15:53:16.067Z,9.73
2022-12-26T15:54:16.031Z,9.71
2022-12-26T15:55:16.038Z,9.73
2022-12-26T15:56:16.021Z,9.66
2022-12-26T15:57:16.046Z,9.79
2022-12-26T15:58:15.984Z,9.71
2022-12-26T15:59:15.999Z,9.61
2022-12-26T16:00:15.994Z,9.63
2022-12-26T16:01:16.062Z,9.61
2022-12-26T16:02:16.163Z,9.68
2022-12-26T16:03:16.007Z,9.49
2022-12-26T16:04:15.932Z,9.64
2022-12-26T16:05:15.938Z,9.52
2022-12-26T16:06:15.905Z,9.52
2022-12-26T16:07:15.889Z,9.52
2022-12-26T16:08:15.911Z,9.50
2022-12-26T16:09:15.921Z,9.45
2022-12-26T16:10:15.877Z,9.50
2022-12-26T16:11:15.852Z,9.49
2022-12-26T16:12:15.836Z,9.42
2022-12-26T16:13:15.815Z,9.34
2022-12-26T16:14:15.816Z,9.38
2022-12-26T16:15:15.827Z,9.40
2022-12-26T16:16:15.886Z,9.46
2022-12-26T16:17:15.770Z,9.48
2022-12-26T16:18:15.771Z,9.40
2022-12-26T16:19:15.761Z,9.38
2022-12-26T16:20:18.788Z,9.39
2022-12-26T16:21:15.730Z,9.34
2022-12-26T16:22:15.709Z,9.38
2022-12-26T16:23:15.715Z,9.32
2022-12-26T16:24:15.701Z,9.35
2022-12-26T16:25:31.870Z,9.46
2022-12-26T16:26:15.692Z,9.35
2022-12-26T16:27:15.656Z,9.42
2022-12-26T16:28:15.651Z,9.42
2022-12-26T16:29:15.649Z,9.31
2022-12-26T16:30:15.623Z,9.39
2022-12-26T16:31:15.677Z,9.35
2022-12-26T16:32:15.597Z,9.30
2022-12-26T16:33:15.599Z,9.35
2022-12-26T16:34:15.574Z,9.38
2022-12-26T16:35:15.587Z,9.38
2022-12-26T16:36:15.620Z,9.30
2022-12-26T16:37:15.556Z,9.32
2022-12-26T16:38:15.530Z,9.25
2022-12-26T16:39:15.529Z,9.32
2022-12-26T16:40:15.503Z,9.34
2022-12-26T16:41:15.665Z,9.25
2022-12-26T16:42:15.481Z,9.34
2022-12-26T16:43:15.487Z,9.21
2022-12-26T16:44:15.473Z,9.25
2022-12-26T16:45:15.474Z,9.25
2022-12-26T16:46:15.611Z,9.24
2022-12-26T16:47:15.483Z,9.30
2022-12-26T16:48:15.426Z,9.21
2022-12-26T16:49:15.419Z,9.21
2022-12-26T16:50:15.404Z,9.31
2022-12-26T16:51:42.962Z,9.16
2022-12-26T16:52:15.368Z,9.21
2022-12-26T16:53:15.375Z,9.27
2022-12-26T16:54:15.366Z,9.25
2022-12-26T16:55:15.355Z,9.30
2022-12-26T16:56:15.340Z,9.20
2022-12-26T16:57:15.349Z,9.20
2022-12-26T16:58:15.306Z,9.13
2022-12-26T16:59:17.629Z,9.12
2022-12-26T17:00:15.277Z,9.13
2022-12-26T17:01:15.311Z,9.13
2022-12-26T17:02:16.347Z,9.21
2022-12-26T17:03:15.288Z,9.05
2022-12-26T17:04:15.246Z,9.02
2022-12-26T17:05:15.225Z,9.09
2022-12-26T17:06:15.233Z,9.09
2022-12-26T17:07:15.205Z,8.96
2022-12-26T17:08:16.189Z,9.01
2022-12-26T17:09:17.194Z,9.10
2022-12-26T17:10:15.171Z,8.94
2022-12-26T17:11:15.174Z,8.94
2022-12-26T17:12:15.140Z,8.88
2022-12-26T17:13:15.171Z,8.96
2022-12-26T17:14:15.118Z,8.99
2022-12-26T17:15:15.124Z,8.94
2022-12-26T17:16:15.161Z,8.93
2022-12-26T17:17:15.108Z,8.94
2022-12-26T17:18:15.075Z,8.88
2022-12-26T17:19:15.346Z,8.94
